createdAt,value
2018-05-08T00:00:34.074Z,3.20
2018-05-08T00:03:02.958Z,3.00
2018-05-08T00:05:31.547Z,2.90
2018-05-08T00:08:00.027Z,2.83
2018-05-08T00:10:28.522Z,3.13
2018-05-08T00:12:56.597Z,3.97
2018-05-08T00:15:25.236Z,3.03
2018-05-08T00:17:53.910Z,2.97
2018-05-08T00:20:23.179Z,2.40
2018-05-08T00:22:52.178Z,2.77
2018-05-08T00:25:20.246Z,3.30
2018-05-08T00:27:48.804Z,3.13
2018-05-08T00:30:17.705Z,2.90
2018-05-08T00:32:46.181Z,2.40
2018-05-08T00:35:14.599Z,2.67
2018-05-08T00:37:42.471Z,2.70
2018-05-08T00:40:10.419Z,2.77
2018-05-08T00:42:39.405Z,2.83
2018-05-08T00:45:07.685Z,2.77
2018-05-08T00:47:36.130Z,3.00
2018-05-08T00:50:04.470Z,2.83
2018-05-08T00:52:33.183Z,2.90
2018-05-08T00:55:06.545Z,2.80
2018-05-08T00:57:34.749Z,3.07
2018-05-08T01:00:03.241Z,3.07
2018-05-08T01:02:31.649Z,3.30
2018-05-08T01:04:59.933Z,2.97
2018-05-08T01:07:28.786Z,2.93
2018-05-08T01:09:57.426Z,3.30
2018-05-08T01:12:26.072Z,3.20
2018-05-08T01:14:53.853Z,3.37
2018-05-08T01:17:22.532Z,3.00
2018-05-08T01:19:50.774Z,4.00
2018-05-08T01:22:19.201Z,3.80
2018-05-08T01:24:50.178Z,3.67
2018-05-08T01:27:18.519Z,3.70
2018-05-08T01:29:47.232Z,3.93
2018-05-08T01:32:15.801Z,3.80
2018-05-08T01:34:44.227Z,3.80
2018-05-08T01:37:12.693Z,4.30
2018-05-08T01:39:42.170Z,3.50
2018-05-08T01:42:10.773Z,3.60
2018-05-08T01:44:39.512Z,3.90
2018-05-08T01:47:08.165Z,3.40
2018-05-08T01:49:36.452Z,3.43
2018-05-08T01:52:05.124Z,3.53
2018-05-08T01:54:33.747Z,3.70
2018-05-08T01:57:02.978Z,3.77
2018-05-08T01:59:31.521Z,3.77
2018-05-08T02:02:00.050Z,3.90
2018-05-08T02:04:29.344Z,3.50
2018-05-08T02:06:58.418Z,3.40
2018-05-08T02:09:27.547Z,2.80
2018-05-08T02:11:56.610Z,3.50
2018-05-08T02:14:25.483Z,3.40
2018-05-08T02:16:54.174Z,3.70
2018-05-08T02:19:22.554Z,3.30
2018-05-08T02:21:50.837Z,3.50
2018-05-08T02:24:19.035Z,2.90
2018-05-08T02:26:47.090Z,3.50
2018-05-08T02:29:15.636Z,2.90
2018-05-08T02:31:44.280Z,3.80
2018-05-08T02:34:12.945Z,3.10
2018-05-08T02:36:41.003Z,3.40
2018-05-08T02:39:09.698Z,3.00
2018-05-08T02:41:37.900Z,3.23
2018-05-08T02:44:06.647Z,2.93
2018-05-08T02:46:35.634Z,3.23
2018-05-08T02:49:04.586Z,2.70
2018-05-08T02:51:32.902Z,3.33
2018-05-08T02:54:01.870Z,3.50
2018-05-08T02:56:30.050Z,3.40
2018-05-08T02:58:59.045Z,3.33
2018-05-08T03:01:27.350Z,2.97
2018-05-08T03:03:55.700Z,3.40
2018-05-08T03:06:23.825Z,3.20
2018-05-08T03:08:52.402Z,3.50
2018-05-08T03:11:20.851Z,3.03
2018-05-08T03:13:49.184Z,3.73
2018-05-08T03:16:17.314Z,3.27
2018-05-08T03:18:45.957Z,2.90
2018-05-08T03:21:14.604Z,3.27
2018-05-08T03:23:43.227Z,3.20
2018-05-08T03:26:12.172Z,3.03
2018-05-08T03:28:40.753Z,3.17
2018-05-08T03:31:09.272Z,3.10
2018-05-08T03:33:37.730Z,3.20
2018-05-08T03:36:06.035Z,3.63
2018-05-08T03:38:34.395Z,2.97
2018-05-08T03:41:02.748Z,3.50
2018-05-08T03:43:31.684Z,3.50
2018-05-08T03:46:00.052Z,3.10
2018-05-08T03:48:29.188Z,2.70
2018-05-08T03:50:57.382Z,2.87
2018-05-08T03:53:25.944Z,2.60
2018-05-08T03:55:54.104Z,3.70
2018-05-08T03:58:22.766Z,2.87
2018-05-08T04:01:03.266Z,2.70
2018-05-08T04:03:43.525Z,3.03
2018-05-08T04:19:39.355Z,2.40
2018-05-08T04:22:08.051Z,2.83
2018-05-08T04:24:36.497Z,3.23
2018-05-08T04:27:05.175Z,4.00
2018-05-08T04:29:33.585Z,3.33
2018-05-08T04:32:02.096Z,3.37
2018-05-08T04:34:30.818Z,3.87
2018-05-08T04:36:59.406Z,3.27
2018-05-08T04:39:27.749Z,3.70
2018-05-08T04:41:56.198Z,3.33
2018-05-08T04:44:24.705Z,4.00
2018-05-08T04:46:52.830Z,3.73
2018-05-08T04:49:20.978Z,3.90
2018-05-08T04:51:50.451Z,3.60
2018-05-08T04:54:19.117Z,3.80
2018-05-08T04:56:47.572Z,3.83
2018-05-08T04:59:17.010Z,3.33
2018-05-08T05:01:45.512Z,3.60
2018-05-08T05:04:15.212Z,3.60
2018-05-08T05:06:43.698Z,3.53
2018-05-08T05:09:12.056Z,3.90
2018-05-08T05:11:40.741Z,3.90
2018-05-08T05:14:09.919Z,4.10
2018-05-08T05:16:38.299Z,4.13
2018-05-08T05:19:07.381Z,3.70
2018-05-08T05:21:35.455Z,4.10
2018-05-08T05:24:04.105Z,3.13
2018-05-08T05:26:32.084Z,3.50
2018-05-08T05:29:00.725Z,2.97
2018-05-08T05:31:29.445Z,3.93
2018-05-08T05:33:58.351Z,3.07
2018-05-08T05:36:27.207Z,3.57
2018-05-08T05:38:56.116Z,3.33
2018-05-08T05:41:25.651Z,2.80
2018-05-08T05:43:54.010Z,3.30
2018-05-08T05:46:23.111Z,3.20
2018-05-08T05:48:51.772Z,3.43
2018-05-08T05:51:20.570Z,3.60
2018-05-08T05:53:49.089Z,2.87
2018-05-08T05:56:17.688Z,2.97
2018-05-08T05:58:46.390Z,3.40
2018-05-08T06:01:14.605Z,2.47
2018-05-08T06:03:43.241Z,3.10
2018-05-08T06:06:11.936Z,3.10
2018-05-08T06:08:40.965Z,3.10
2018-05-08T06:11:09.431Z,2.93
2018-05-08T06:13:37.775Z,2.87
2018-05-08T06:16:06.273Z,2.67
2018-05-08T06:18:34.722Z,3.90
2018-05-08T06:21:03.764Z,3.00
2018-05-08T06:23:32.123Z,3.30
2018-05-08T06:26:00.441Z,2.73
2018-05-08T06:28:29.450Z,2.77
2018-05-08T06:30:57.818Z,2.70
2018-05-08T06:33:26.725Z,2.57
2018-05-08T06:35:55.705Z,3.03
2018-05-08T06:38:23.913Z,2.80
2018-05-08T06:40:52.495Z,2.63
2018-05-08T06:43:20.966Z,2.70
2018-05-08T06:45:50.448Z,3.10
2018-05-08T06:48:19.444Z,2.43
2018-05-08T06:50:48.678Z,3.60
2018-05-08T06:53:17.134Z,3.00
2018-05-08T06:55:45.667Z,2.80
2018-05-08T06:58:14.485Z,3.00
2018-05-08T07:00:43.390Z,2.93
2018-05-08T07:03:12.076Z,2.43
2018-05-08T07:05:40.096Z,2.93
2018-05-08T07:08:08.785Z,2.60
2018-05-08T07:10:37.893Z,12.00
2018-05-08T07:13:06.568Z,3.20
2018-05-08T07:15:34.424Z,3.97
2018-05-08T07:18:03.105Z,2.63
2018-05-08T07:20:31.416Z,2.83
2018-05-08T07:22:59.647Z,2.70
2018-05-08T07:25:28.133Z,3.20
2018-05-08T07:27:56.262Z,2.60
2018-05-08T07:30:25.849Z,3.20
2018-05-08T07:32:54.118Z,3.00
2018-05-08T07:35:23.316Z,3.20
2018-05-08T07:37:53.225Z,3.00
2018-05-08T07:40:21.571Z,3.30
2018-05-08T07:42:49.987Z,2.50
2018-05-08T07:45:18.550Z,3.33
2018-05-08T07:47:47.279Z,2.53
2018-05-08T07:50:16.026Z,3.10
2018-05-08T07:52:44.488Z,2.70
2018-05-08T07:55:12.700Z,2.80
2018-05-08T07:57:40.682Z,4.57
2018-05-08T08:00:09.280Z,3.07
2018-05-08T08:02:37.696Z,2.83
2018-05-08T08:05:06.626Z,3.27
2018-05-08T08:07:35.054Z,2.70
2018-05-08T08:10:03.553Z,2.70
2018-05-08T08:12:32.190Z,3.33
2018-05-08T08:15:00.856Z,2.57
2018-05-08T08:17:29.449Z,2.97
2018-05-08T08:19:57.642Z,3.10
2018-05-08T08:22:26.054Z,2.80
2018-05-08T08:24:54.585Z,2.67
2018-05-08T08:27:22.869Z,2.80
2018-05-08T08:29:52.024Z,2.90
2018-05-08T08:32:20.229Z,3.23
2018-05-08T08:34:48.749Z,3.40
2018-05-08T08:37:17.495Z,3.20
2018-05-08T08:39:46.753Z,2.70
2018-05-08T08:42:14.883Z,2.33
2018-05-08T08:44:43.532Z,3.37
2018-05-08T08:47:12.037Z,3.10
2018-05-08T08:49:40.718Z,2.40
2018-05-08T08:52:09.875Z,2.97
2018-05-08T08:54:38.987Z,3.27
2018-05-08T08:57:07.484Z,2.63
2018-05-08T08:59:35.777Z,2.80
2018-05-08T09:02:04.173Z,2.90
2018-05-08T09:04:32.892Z,3.00
2018-05-08T09:07:01.320Z,3.10
2018-05-08T09:09:30.299Z,3.50
2018-05-08T09:11:58.676Z,2.90
2018-05-08T09:14:26.560Z,2.83
2018-05-08T09:16:54.851Z,2.67
2018-05-08T09:19:23.556Z,2.63
2018-05-08T09:21:51.935Z,2.87
2018-05-08T09:24:20.664Z,2.90
2018-05-08T09:26:49.056Z,3.83
2018-05-08T09:29:18.229Z,2.53
2018-05-08T09:31:46.292Z,3.50
2018-05-08T09:34:15.239Z,4.83
2018-05-08T09:36:43.892Z,2.33
2018-05-08T09:39:12.074Z,2.40
2018-05-08T09:41:40.314Z,2.93
2018-05-08T09:44:08.331Z,2.70
2018-05-08T09:46:36.637Z,3.00
2018-05-08T09:49:05.717Z,2.50
2018-05-08T09:51:34.056Z,2.73
2018-05-08T09:54:02.462Z,3.07
2018-05-08T09:56:31.056Z,2.70
2018-05-08T09:58:59.836Z,3.30
2018-05-08T10:01:28.605Z,2.80
2018-05-08T10:03:57.522Z,3.50
2018-05-08T10:06:25.818Z,2.50
2018-05-08T10:08:54.143Z,3.40
2018-05-08T10:11:23.290Z,3.30
2018-05-08T10:13:51.636Z,2.57
2018-05-08T10:16:20.086Z,2.70
2018-05-08T10:18:48.939Z,3.47
2018-05-08T10:21:17.615Z,2.63
2018-05-08T10:23:46.296Z,2.43
2018-05-08T10:26:14.494Z,3.03
2018-05-08T10:28:42.692Z,3.00
2018-05-08T10:31:11.253Z,2.97
2018-05-08T10:33:39.367Z,2.43
2018-05-08T10:36:07.697Z,3.00
2018-05-08T10:38:35.986Z,3.03
2018-05-08T10:41:04.396Z,2.77
2018-05-08T10:43:33.721Z,3.00
2018-05-08T10:46:02.158Z,2.53
2018-05-08T10:48:30.720Z,2.90
2018-05-08T10:50:59.493Z,2.30
2018-05-08T10:53:27.917Z,2.83
2018-05-08T10:55:56.578Z,2.60
2018-05-08T10:58:25.026Z,2.60
2018-05-08T11:00:54.248Z,3.33
2018-05-08T11:03:22.718Z,3.03
2018-05-08T11:05:51.402Z,3.03
2018-05-08T11:08:19.669Z,2.30
2018-05-08T11:10:48.336Z,2.30
2018-05-08T11:13:16.736Z,2.83
2018-05-08T11:15:45.082Z,2.50
2018-05-08T11:18:13.698Z,2.63
2018-05-08T11:20:42.219Z,2.80
2018-05-08T11:23:11.180Z,2.67
2018-05-08T11:25:39.684Z,2.33
2018-05-08T11:28:07.915Z,2.37
2018-05-08T11:30:37.081Z,2.30
2018-05-08T11:33:05.993Z,3.33
2018-05-08T11:35:34.312Z,2.60
2018-05-08T11:38:03.558Z,1.63
2018-05-08T11:40:31.451Z,2.03
2018-05-08T11:43:00.510Z,2.20
2018-05-08T11:45:29.051Z,3.20
2018-05-08T11:47:57.925Z,1.90
2018-05-08T11:50:26.526Z,2.30
2018-05-08T11:52:55.112Z,2.40
2018-05-08T11:55:24.263Z,2.20
2018-05-08T11:57:52.839Z,2.70
2018-05-08T12:00:22.536Z,2.40
2018-05-08T12:02:50.835Z,2.03
2018-05-08T12:05:20.335Z,2.20
2018-05-08T12:07:48.826Z,2.60
2018-05-08T12:10:17.003Z,2.40
2018-05-08T12:12:45.748Z,2.47
2018-05-08T12:15:14.801Z,2.30
2018-05-08T12:17:42.997Z,2.20
2018-05-08T12:20:11.376Z,2.90
2018-05-08T12:22:40.232Z,2.23
2018-05-08T12:25:08.748Z,2.47
2018-05-08T12:27:37.070Z,2.40
2018-05-08T12:30:05.396Z,3.17
2018-05-08T12:32:34.187Z,2.60
2018-05-08T12:35:02.549Z,2.90
2018-05-08T12:37:30.976Z,2.53
2018-05-08T12:39:59.626Z,2.93
2018-05-08T12:42:28.575Z,2.40
2018-05-08T12:44:56.859Z,3.47
2018-05-08T12:47:25.516Z,2.10
2018-05-08T12:49:53.785Z,2.67
2018-05-08T12:52:22.119Z,2.60
2018-05-08T12:54:51.782Z,2.60
2018-05-08T12:57:20.576Z,2.30
2018-05-08T12:59:50.070Z,1.87
2018-05-08T13:02:18.853Z,2.20
2018-05-08T13:04:47.374Z,2.60
2018-05-08T13:07:15.942Z,2.27
2018-05-08T13:09:44.610Z,2.27
2018-05-08T13:12:12.824Z,2.40
2018-05-08T13:14:41.010Z,2.17
2018-05-08T13:17:09.984Z,2.33
2018-05-08T13:19:38.866Z,2.17
2018-05-08T13:22:07.418Z,2.07
2018-05-08T13:24:36.585Z,2.30
2018-05-08T13:27:05.124Z,2.17
2018-05-08T13:29:33.923Z,2.40
2018-05-08T13:32:02.206Z,1.90
2018-05-08T13:34:31.100Z,2.07
2018-05-08T13:36:59.535Z,1.90
2018-05-08T13:39:27.879Z,2.03
2018-05-08T13:41:57.239Z,2.10
2018-05-08T13:44:25.761Z,1.63
2018-05-08T13:46:54.519Z,2.10
2018-05-08T13:49:23.593Z,1.97
2018-05-08T13:51:51.615Z,1.73
2018-05-08T13:54:21.415Z,1.90
2018-05-08T13:56:50.318Z,2.43
2018-05-08T13:59:18.895Z,1.90
2018-05-08T14:01:47.797Z,2.80
2018-05-08T14:04:16.203Z,2.30
2018-05-08T14:06:44.689Z,2.40
2018-05-08T14:09:12.795Z,2.50
2018-05-08T14:11:41.271Z,2.43
2018-05-08T14:14:09.951Z,1.90
2018-05-08T14:16:38.120Z,2.30
2018-05-08T14:19:07.111Z,2.33
2018-05-08T14:21:35.705Z,1.97
2018-05-08T14:24:04.704Z,2.20
2018-05-08T14:26:33.323Z,1.93
2018-05-08T14:29:01.506Z,2.87
2018-05-08T14:31:29.804Z,2.60
2018-05-08T14:33:58.367Z,1.83
2018-05-08T14:36:26.751Z,2.33
2018-05-08T14:38:55.836Z,2.30
2018-05-08T14:41:24.933Z,2.73
2018-05-08T14:43:53.436Z,2.20
2018-05-08T14:46:21.618Z,1.90
2018-05-08T14:48:50.085Z,2.10
2018-05-08T14:51:18.619Z,2.43
2018-05-08T14:53:46.936Z,2.23
2018-05-08T14:56:15.805Z,2.20
2018-05-08T14:58:43.934Z,2.03
2018-05-08T15:01:12.915Z,2.03
2018-05-08T15:03:42.193Z,2.17
2018-05-08T15:06:11.552Z,2.53
2018-05-08T15:08:40.151Z,2.20
2018-05-08T15:11:08.617Z,2.63
2018-05-08T15:13:36.995Z,2.00
2018-05-08T15:16:05.666Z,2.67
2018-05-08T15:18:34.069Z,2.23
2018-05-08T15:21:02.293Z,2.60
2018-05-08T15:23:30.983Z,4.77
2018-05-08T15:25:59.811Z,2.23
2018-05-08T15:28:28.065Z,2.23
2018-05-08T15:30:57.009Z,2.17
2018-05-08T15:33:25.491Z,2.27
2018-05-08T15:35:53.507Z,2.20
2018-05-08T15:38:21.648Z,2.03
2018-05-08T15:40:49.877Z,1.90
2018-05-08T15:43:18.251Z,2.10
2018-05-08T15:45:46.500Z,2.50
2018-05-08T15:48:14.975Z,2.00
2018-05-08T15:50:43.407Z,2.20
2018-05-08T15:53:11.456Z,2.33
2018-05-08T15:55:40.936Z,2.27
2018-05-08T15:58:08.755Z,2.30
2018-05-08T16:00:36.690Z,2.10
2018-05-08T16:03:05.604Z,2.13
2018-05-08T16:05:34.289Z,2.40
2018-05-08T16:08:02.285Z,2.53
2018-05-08T16:10:30.733Z,2.07
2018-05-08T16:12:58.806Z,2.50
2018-05-08T16:15:27.101Z,2.67
2018-05-08T16:17:55.881Z,1.83
2018-05-08T16:20:24.364Z,2.60
2018-05-08T16:22:52.475Z,2.10
2018-05-08T16:25:20.588Z,2.73
2018-05-08T16:27:49.075Z,2.07
2018-05-08T16:30:18.141Z,1.83
2018-05-08T16:32:46.834Z,2.10
2018-05-08T16:35:15.616Z,1.93
2018-05-08T16:37:43.971Z,2.03
2018-05-08T16:40:12.387Z,1.30
2018-05-08T16:42:41.171Z,2.07
2018-05-08T16:45:09.631Z,1.77
2018-05-08T16:47:38.109Z,2.10
2018-05-08T16:50:06.369Z,1.90
2018-05-08T16:52:34.543Z,1.83
2018-05-08T16:55:02.622Z,2.37
2018-05-08T16:57:30.801Z,2.23
2018-05-08T16:59:59.598Z,2.10
2018-05-08T17:02:29.093Z,2.07
2018-05-08T17:04:57.921Z,1.80
2018-05-08T17:07:26.290Z,1.63
2018-05-08T17:09:55.194Z,2.07
2018-05-08T17:12:23.198Z,2.20
2018-05-08T17:14:51.898Z,2.00
2018-05-08T17:17:21.043Z,2.53
2018-05-08T17:19:49.947Z,2.03
2018-05-08T17:22:18.404Z,2.17
2018-05-08T17:24:46.995Z,2.00
2018-05-08T17:27:15.046Z,2.33
2018-05-08T17:29:43.581Z,2.23
2018-05-08T17:32:12.098Z,2.60
2018-05-08T17:34:41.653Z,2.20
2018-05-08T17:37:09.665Z,2.60
2018-05-08T17:39:37.925Z,2.60
2018-05-08T17:42:06.065Z,2.37
2018-05-08T17:44:34.237Z,2.40
2018-05-08T17:47:02.389Z,2.27
2018-05-08T17:49:31.520Z,2.97
2018-05-08T17:52:00.609Z,2.50
2018-05-08T17:54:29.590Z,2.90
2018-05-08T17:56:58.804Z,2.27
2018-05-08T17:59:27.853Z,2.87
2018-05-08T18:01:56.466Z,3.07
2018-05-08T18:04:25.803Z,3.23
2018-05-08T18:06:53.426Z,2.70
2018-05-08T18:09:21.558Z,2.70
2018-05-08T18:11:50.129Z,3.00
2018-05-08T18:14:18.381Z,7.80
2018-05-08T18:16:46.575Z,7.53
2018-05-08T18:19:15.167Z,3.67
2018-05-08T18:21:43.347Z,3.50
2018-05-08T18:24:12.057Z,3.20
2018-05-08T18:26:40.299Z,3.30
2018-05-08T18:29:08.546Z,2.73
2018-05-08T18:31:37.545Z,2.70
2018-05-08T18:34:06.523Z,3.10
2018-05-08T18:36:34.326Z,2.80
2018-05-08T18:39:02.952Z,2.63
2018-05-08T18:41:31.122Z,2.63
2018-05-08T18:43:59.338Z,3.60
2018-05-08T18:46:28.045Z,3.33
2018-05-08T18:48:56.741Z,3.30
2018-05-08T18:51:24.770Z,3.00
2018-05-08T18:53:53.124Z,3.60
2018-05-08T18:56:21.801Z,3.03
2018-05-08T18:58:50.975Z,3.27
2018-05-08T19:01:19.080Z,3.50
2018-05-08T19:03:47.451Z,3.37
2018-05-08T19:06:15.427Z,3.50
2018-05-08T19:08:43.728Z,3.57
2018-05-08T19:11:17.866Z,3.53
2018-05-08T19:13:46.141Z,3.93
2018-05-08T19:16:15.226Z,3.60
2018-05-08T19:18:48.919Z,3.80
2018-05-08T19:21:16.959Z,4.27
2018-05-08T19:23:51.075Z,4.97
2018-05-08T19:26:19.684Z,4.33
2018-05-08T19:28:52.868Z,6.97
2018-05-08T19:31:21.520Z,6.00
2018-05-08T19:33:49.780Z,5.50
2018-05-08T19:36:23.074Z,4.30
2018-05-08T19:38:52.035Z,4.93
2018-05-08T19:41:20.101Z,4.20
2018-05-08T19:43:48.509Z,4.03
2018-05-08T19:46:16.646Z,3.63
2018-05-08T19:48:45.662Z,3.13
2018-05-08T19:51:14.053Z,3.17
2018-05-08T19:53:42.835Z,3.47
2018-05-08T19:56:11.060Z,3.43
2018-05-08T19:58:39.647Z,3.83
2018-05-08T20:01:08.197Z,4.20
2018-05-08T20:03:36.931Z,3.33
2018-05-08T20:06:05.255Z,3.80
2018-05-08T20:08:33.697Z,4.00
2018-05-08T20:11:01.914Z,3.87
2018-05-08T20:13:29.980Z,3.90
2018-05-08T20:15:58.029Z,3.20
2018-05-08T20:18:25.908Z,3.50
2018-05-08T20:20:54.757Z,3.37
2018-05-08T20:23:23.360Z,3.13
2018-05-08T20:25:51.952Z,4.20
2018-05-08T20:28:20.617Z,4.37
2018-05-08T20:30:49.218Z,4.30
2018-05-08T20:33:17.840Z,4.20
2018-05-08T20:35:46.970Z,4.50
2018-05-08T20:38:15.933Z,3.97
2018-05-08T20:40:44.218Z,4.30
2018-05-08T20:43:13.109Z,3.40
2018-05-08T20:45:41.626Z,3.70
2018-05-08T20:48:10.404Z,4.10
2018-05-08T20:50:40.183Z,4.30
2018-05-08T20:53:08.806Z,3.30
2018-05-08T20:55:37.167Z,3.70
2018-05-08T20:58:06.069Z,4.00
2018-05-08T21:00:34.635Z,4.23
2018-05-08T21:03:03.877Z,4.10
2018-05-08T21:05:33.112Z,4.00
2018-05-08T21:08:02.859Z,3.57
2018-05-08T21:10:31.237Z,4.00
2018-05-08T21:13:00.193Z,3.77
2018-05-08T21:15:29.640Z,4.47
2018-05-08T21:17:58.707Z,4.20
2018-05-08T21:20:27.073Z,4.07
2018-05-08T21:22:56.073Z,4.47
2018-05-08T21:25:25.265Z,4.00
2018-05-08T21:27:59.861Z,3.90
2018-05-08T21:30:35.137Z,4.40
2018-05-08T21:33:04.570Z,4.30
2018-05-08T21:35:33.899Z,4.23
2018-05-08T21:38:02.792Z,3.70
2018-05-08T21:40:31.767Z,4.20
2018-05-08T21:43:00.682Z,4.40
2018-05-08T21:45:29.730Z,4.17
2018-05-08T21:47:58.573Z,4.03
2018-05-08T21:50:28.273Z,3.90
2018-05-08T21:52:57.366Z,4.50
2018-05-08T21:55:27.303Z,4.40
2018-05-08T21:57:56.558Z,4.03
2018-05-08T22:00:25.749Z,4.33
2018-05-08T22:02:55.273Z,4.10
2018-05-08T22:05:24.441Z,3.83
2018-05-08T22:07:53.584Z,4.23
2018-05-08T22:10:23.183Z,3.67
2018-05-08T22:12:52.183Z,4.90
2018-05-08T22:15:20.790Z,4.83
2018-05-08T22:17:49.513Z,4.83
2018-05-08T22:20:18.236Z,3.73
2018-05-08T22:22:48.051Z,4.40
2018-05-08T22:25:16.613Z,4.00
2018-05-08T22:27:45.734Z,4.40
2018-05-08T22:30:14.705Z,3.93
2018-05-08T22:32:44.080Z,4.87
2018-05-08T22:35:13.027Z,5.90
2018-05-08T22:37:42.161Z,7.07
2018-05-08T22:40:11.064Z,5.50
2018-05-08T22:42:39.681Z,5.80
2018-05-08T22:45:08.913Z,4.50
2018-05-08T22:47:37.751Z,4.47
2018-05-08T22:50:06.703Z,4.57
2018-05-08T22:52:35.596Z,4.47
2018-05-08T22:55:04.821Z,4.50
2018-05-08T22:57:34.647Z,5.33
2018-05-08T23:00:03.393Z,4.83
2018-05-08T23:02:32.343Z,5.00
2018-05-08T23:05:01.237Z,4.07
2018-05-08T23:07:30.528Z,4.90
2018-05-08T23:10:00.082Z,5.17
2018-05-08T23:12:29.596Z,4.17
2018-05-08T23:14:58.618Z,4.43
2018-05-08T23:17:27.920Z,4.63
2018-05-08T23:19:56.954Z,5.13
2018-05-08T23:22:26.518Z,5.10
2018-05-08T23:24:55.497Z,4.60
2018-05-08T23:27:24.802Z,4.40
2018-05-08T23:29:53.633Z,5.00
2018-05-08T23:32:22.576Z,4.90
2018-05-08T23:34:51.177Z,5.13
2018-05-08T23:37:20.376Z,5.67
2018-05-08T23:39:49.440Z,4.97
2018-05-08T23:42:19.518Z,4.20
2018-05-08T23:44:48.966Z,4.97
2018-05-08T23:47:18.154Z,4.37
2018-05-08T23:49:46.676Z,4.83
2018-05-08T23:52:16.018Z,4.90
2018-05-08T23:54:45.974Z,4.73
2018-05-08T23:57:14.779Z,4.50
2018-05-08T23:59:43.799Z,4.77
